Time;durP1;ratioP1;P1;durP2;ratioP2;P2;SDS_P1;SDS_P2;PMS_P1;PMS_P2;Temp;Humidity;BMP_temperature;BMP_pressure;BME280_temperature;BME280_humidity;BME280_pressure;Samples;Min_cycle;Max_cycle;Signal;HPM_P1;HPM_P2
2023/10/21 06:43:17;;;;;;;3.40;0.57;;;12.70;99.90;;;;;;4014179;23;20242;-71
2023/10/21 06:45:45;;;;;;;0.83;0.50;;;12.70;99.90;;;;;;4895733;29;20301;-74
2023/10/21 06:48:12;;;;;;;0.70;0.30;;;12.70;99.90;;;;;;4897034;29;20719;-72
2023/10/21 06:50:39;;;;;;;0.80;0.30;;;12.80;99.90;;;;;;4896498;29;20656;-73
2023/10/21 06:53:07;;;;;;;0.50;0.30;;;12.70;99.90;;;;;;4896392;29;20244;-71
2023/10/21 06:55:41;;;;;;;1.97;0.30;;;12.70;99.90;;;;;;4896870;29;20309;-73
2023/10/21 06:58:08;;;;;;;0.30;0.20;;;12.70;99.90;;;;;;4896501;29;20335;-72
2023/10/21 07:00:36;;;;;;;0.80;0.60;;;12.80;99.90;;;;;;4896669;29;20341;-71
2023/10/21 07:03:04;;;;;;;1.90;0.30;;;12.80;99.90;;;;;;4896354;29;20241;-71
2023/10/21 07:05:31;;;;;;;1.07;0.20;;;12.80;99.90;;;;;;4896433;29;20242;-72
2023/10/21 07:07:58;;;;;;;0.60;0.40;;;12.70;99.90;;;;;;4896656;29;20242;-75
2023/10/21 07:10:27;;;;;;;1.90;0.40;;;12.80;99.90;;;;;;4896221;29;20273;-73
2023/10/21 07:12:54;;;;;;;0.97;0.40;;;12.80;99.90;;;;;;4896312;29;20225;-73
2023/10/21 07:15:20;;;;;;;0.93;0.30;;;12.90;99.90;;;;;;4896381;29;20270;-73
2023/10/21 07:17:49;;;;;;;1.13;0.40;;;13.00;99.90;;;;;;4896275;29;20281;-73
2023/10/21 07:20:16;;;;;;;0.50;0.20;;;12.90;99.90;;;;;;4896437;29;20230;-73
2023/10/21 07:22:44;;;;;;;0.40;0.30;;;12.90;99.90;;;;;;4895819;29;20234;-72
2023/10/21 07:25:12;;;;;;;3.60;0.43;;;12.90;99.90;;;;;;4895962;29;20338;-77
2023/10/21 07:27:38;;;;;;;1.20;0.20;;;12.90;99.90;;;;;;4897448;29;20250;-75
2023/10/21 07:30:07;;;;;;;0.87;0.40;;;12.90;99.90;;;;;;4899813;29;20262;-74
2023/10/21 07:32:34;;;;;;;0.70;0.30;;;12.90;99.90;;;;;;4912588;29;20220;-74
2023/10/21 07:35:03;;;;;;;1.30;0.30;;;12.90;99.90;;;;;;4915733;29;20237;-73
2023/10/21 07:37:30;;;;;;;1.53;0.30;;;13.00;99.90;;;;;;4899475;29;20237;-75
2023/10/21 07:39:58;;;;;;;1.47;0.37;;;13.10;99.90;;;;;;4899174;29;20277;-79
2023/10/21 07:42:25;;;;;;;0.43;0.20;;;13.20;99.90;;;;;;4899634;29;20741;-74
2023/10/21 07:44:52;;;;;;;0.60;0.30;;;13.30;99.90;;;;;;4911996;29;20576;-75
2023/10/21 07:47:19;;;;;;;1.50;0.40;;;13.60;99.90;;;;;;4899098;29;20222;-71
2023/10/21 07:49:45;;;;;;;1.50;0.57;;;13.90;99.90;;;;;;4899300;29;20321;-78
2023/10/21 07:52:14;;;;;;;3.13;0.20;;;13.90;99.90;;;;;;4899290;29;20253;-82
2023/10/21 07:54:41;;;;;;;2.03;0.50;;;13.70;99.90;;;;;;4899443;29;20677;-75
2023/10/21 07:57:08;;;;;;;1.80;0.40;;;13.70;99.90;;;;;;4899406;29;20301;-77
2023/10/21 07:59:35;;;;;;;1.07;0.30;;;13.50;99.90;;;;;;4898704;29;20685;-74
2023/10/21 08:02:02;;;;;;;0.70;0.30;;;13.50;99.90;;;;;;4898976;29;20247;-80
2023/10/21 08:04:29;;;;;;;1.43;0.50;;;13.40;99.90;;;;;;4898603;29;20214;-78
2023/10/21 08:06:56;;;;;;;1.50;0.10;;;13.50;99.90;;;;;;4899716;29;20242;-75
2023/10/21 08:09:24;;;;;;;0.70;0.20;;;13.50;99.90;;;;;;4899973;29;20254;-76
2023/10/21 08:11:52;;;;;;;3.87;0.57;;;13.50;99.90;;;;;;4900509;29;20233;-77
2023/10/21 08:14:20;;;;;;;1.60;0.30;;;13.50;99.90;;;;;;4900414;29;20207;-77
2023/10/21 08:16:47;;;;;;;0.60;0.30;;;13.70;99.90;;;;;;4900357;29;20266;-76
2023/10/21 08:19:14;;;;;;;2.53;0.30;;;13.80;99.90;;;;;;4900639;29;20210;-76
2023/10/21 08:21:40;;;;;;;1.13;0.33;;;14.00;99.90;;;;;;4900396;29;20234;-76
2023/10/21 08:24:08;;;;;;;2.00;0.43;;;14.10;99.90;;;;;;4900399;29;20238;-76
2023/10/21 08:26:36;;;;;;;1.47;0.30;;;14.10;99.90;;;;;;4900244;29;20217;-76
2023/10/21 08:29:03;;;;;;;1.47;0.30;;;14.00;99.90;;;;;;4900264;29;20218;-76
2023/10/21 08:31:30;;;;;;;1.37;0.73;;;14.00;99.90;;;;;;4900209;29;20709;-76
2023/10/21 08:33:57;;;;;;;0.90;0.27;;;14.00;99.90;;;;;;4900442;29;20214;-76
2023/10/21 08:36:26;;;;;;;2.53;0.50;;;13.90;99.90;;;;;;4899065;29;20242;-76
2023/10/21 08:38:53;;;;;;;0.30;0.10;;;13.80;99.90;;;;;;4900047;29;20218;-76
2023/10/21 08:41:21;;;;;;;0.40;0.30;;;13.80;99.90;;;;;;4899918;29;20234;-77
2023/10/21 08:43:50;;;;;;;2.50;0.50;;;13.90;99.90;;;;;;4900249;29;20230;-75
2023/10/21 08:46:18;;;;;;;2.60;0.60;;;13.90;99.90;;;;;;4900313;29;20221;-76
2023/10/21 08:48:47;;;;;;;1.27;0.27;;;14.00;99.90;;;;;;4899975;29;20214;-76
2023/10/21 08:51:19;;;;;;;1.23;0.20;;;14.00;99.90;;;;;;4899738;29;20234;-77
2023/10/21 08:53:47;;;;;;;1.90;0.40;;;13.90;99.90;;;;;;4899833;29;20237;-76
2023/10/21 08:56:15;;;;;;;2.97;0.50;;;14.00;99.90;;;;;;4899861;29;20566;-76
2023/10/21 08:58:42;;;;;;;3.70;0.53;;;14.10;99.90;;;;;;4899465;29;20329;-77
2023/10/21 09:01:10;;;;;;;0.90;0.30;;;14.20;99.90;;;;;;4899203;29;20721;-76
2023/10/21 09:03:38;;;;;;;1.70;0.50;;;14.30;99.90;;;;;;4899827;29;20214;-77
2023/10/21 09:06:07;;;;;;;3.70;0.40;;;14.60;99.90;;;;;;4899710;29;20211;-78
2023/10/21 09:08:35;;;;;;;3.07;0.50;;;14.60;99.90;;;;;;4899506;29;20214;-77
2023/10/21 09:11:06;;;;;;;2.23;0.33;;;14.70;99.90;;;;;;4899451;29;20578;-77
2023/10/21 09:13:34;;;;;;;1.53;0.40;;;14.80;99.90;;;;;;4899357;29;20245;-77
2023/10/21 09:16:03;;;;;;;2.50;0.23;;;14.80;99.90;;;;;;4898933;29;20293;-77
2023/10/21 09:18:32;;;;;;;2.27;0.40;;;14.70;99.90;;;;;;4896023;29;20245;-76
2023/10/21 09:20:59;;;;;;;1.00;0.20;;;14.70;99.90;;;;;;4897598;29;20274;-75
2023/10/21 09:23:27;;;;;;;2.00;0.37;;;14.70;99.90;;;;;;4899340;29;20214;-75
2023/10/21 09:25:54;;;;;;;2.10;0.40;;;14.70;99.90;;;;;;4909939;29;20224;-75
2023/10/21 09:28:22;;;;;;;5.40;0.60;;;14.80;99.90;;;;;;4916665;29;20625;-75
2023/10/21 09:30:57;;;;;;;0.90;0.20;;;14.70;99.90;;;;;;4898856;29;20285;-74
2023/10/21 09:33:24;;;;;;;3.27;0.60;;;14.70;99.90;;;;;;4899059;29;20232;-76
2023/10/21 09:36:03;;;;;;;3.27;0.50;;;14.70;99.90;;;;;;4898828;29;20250;-74
2023/10/21 09:38:36;;;;;;;2.77;0.30;;;14.70;99.90;;;;;;4910385;29;20259;-74
2023/10/21 09:41:07;;;;;;;1.87;0.30;;;14.90;99.90;;;;;;4898226;29;20234;-75
2023/10/21 09:43:37;;;;;;;4.00;0.63;;;15.00;99.90;;;;;;4898253;29;20222;-76
2023/10/21 09:46:06;;;;;;;2.00;0.53;;;15.00;99.90;;;;;;4898057;29;20245;-75
2023/10/21 09:48:41;;;;;;;1.23;0.30;;;15.10;99.90;;;;;;4898434;29;20246;-75
2023/10/21 09:51:12;;;;;;;2.10;1.07;;;15.10;99.90;;;;;;4898789;29;20234;-76
2023/10/21 09:53:42;;;;;;;1.23;0.30;;;15.20;99.90;;;;;;4898735;29;20241;-76
2023/10/21 09:56:11;;;;;;;3.70;0.53;;;15.10;99.90;;;;;;4898874;29;20298;-73
2023/10/21 09:58:40;;;;;;;2.60;0.50;;;15.00;99.90;;;;;;4898187;29;20242;-75
2023/10/21 10:01:10;;;;;;;4.57;1.17;;;14.90;99.90;;;;;;4898123;29;20709;-74
2023/10/21 10:03:39;;;;;;;3.00;0.40;;;14.80;99.90;;;;;;4897922;29;20212;-74
2023/10/21 10:06:08;;;;;;;1.60;0.40;;;14.80;99.90;;;;;;4897907;29;20210;-74
2023/10/21 10:08:37;;;;;;;3.97;0.63;;;14.90;99.90;;;;;;4899780;29;20214;-75
2023/10/21 10:11:10;;;;;;;1.93;0.30;;;14.90;99.90;;;;;;4897586;29;20658;-75
2023/10/21 10:13:42;;;;;;;1.30;0.40;;;14.90;99.90;;;;;;4900520;29;20562;-75
2023/10/21 10:16:23;;;;;;;1.83;0.50;;;15.00;99.90;;;;;;4906934;29;20309;-74
2023/10/21 10:18:51;;;;;;;2.10;0.30;;;15.00;99.90;;;;;;4897295;29;20757;-75
2023/10/21 10:21:20;;;;;;;2.47;0.40;;;15.00;99.90;;;;;;4897998;29;20258;-76
2023/10/21 10:23:53;;;;;;;4.80;0.40;;;15.10;99.90;;;;;;4897856;29;20741;-76
2023/10/21 10:26:34;;;;;;;5.07;0.50;;;15.30;99.90;;;;;;4898059;29;20314;-76
2023/10/21 10:29:18;;;;;;;2.97;1.07;;;15.50;99.90;;;;;;4897897;29;20297;-77
2023/10/21 10:31:45;;;;;;;2.70;0.53;;;15.60;99.90;;;;;;4897975;29;20230;-77
2023/10/21 10:34:12;;;;;;;4.10;0.50;;;15.60;99.90;;;;;;4898534;29;20241;-76
2023/10/21 10:36:40;;;;;;;2.30;0.67;;;15.40;99.90;;;;;;4897359;29;20217;-76
2023/10/21 10:39:10;;;;;;;8.20;0.57;;;15.40;99.90;;;;;;4897597;29;20674;-77
2023/10/21 10:41:48;;;;;;;2.80;0.50;;;15.20;99.90;;;;;;4897516;29;20326;-76
2023/10/21 10:44:15;;;;;;;5.63;0.43;;;15.20;99.90;;;;;;4897546;29;20221;-76
2023/10/21 10:46:42;;;;;;;2.87;0.50;;;15.20;99.90;;;;;;4897662;29;20222;-76
2023/10/21 10:49:10;;;;;;;4.00;0.70;;;15.20;99.90;;;;;;4898191;29;20246;-77
2023/10/21 10:51:43;;;;;;;3.60;0.50;;;15.30;99.90;;;;;;4897760;29;20708;-75
2023/10/21 10:54:17;;;;;;;0.73;0.30;;;15.30;99.90;;;;;;4897602;29;20709;-75
2023/10/21 10:56:46;;;;;;;3.37;0.97;;;15.20;99.90;;;;;;4897035;29;20737;-75
2023/10/21 10:59:14;;;;;;;3.30;0.50;;;15.30;99.90;;;;;;4897257;29;20273;-74
2023/10/21 11:01:41;;;;;;;4.23;0.50;;;15.10;99.90;;;;;;4898079;29;20237;-76
2023/10/21 11:04:08;;;;;;;2.10;0.33;;;15.10;99.90;;;;;;4897479;29;20210;-76
2023/10/21 11:06:37;;;;;;;2.10;0.33;;;15.10;99.90;;;;;;4897281;29;20206;-75
2023/10/21 11:09:05;;;;;;;3.33;0.43;;;15.20;99.90;;;;;;4896613;29;20249;-76
2023/10/21 11:11:46;;;;;;;3.23;0.57;;;15.20;99.90;;;;;;4895732;29;20230;-78
2023/10/21 11:14:15;;;;;;;1.23;0.33;;;15.40;99.90;;;;;;4897350;29;20214;-75
2023/10/21 11:16:43;;;;;;;3.43;0.50;;;15.50;99.90;;;;;;4897648;29;20256;-74
2023/10/21 11:19:10;;;;;;;3.40;0.50;;;15.70;99.90;;;;;;4897865;29;20273;-75
2023/10/21 11:21:39;;;;;;;4.73;0.60;;;15.60;99.90;;;;;;4897601;29;20277;-76
2023/10/21 11:24:07;;;;;;;1.50;0.53;;;15.40;99.90;;;;;;4897445;29;20241;-74
2023/10/21 11:26:35;;;;;;;2.63;0.60;;;15.50;99.90;;;;;;4897291;29;20753;-75
2023/10/21 11:29:05;;;;;;;3.53;0.37;;;15.60;99.90;;;;;;4897376;29;20246;-75
2023/10/21 11:31:33;;;;;;;1.50;0.37;;;15.50;99.90;;;;;;4897071;29;20686;-78
2023/10/21 11:34:09;;;;;;;1.73;0.43;;;15.60;99.90;;;;;;4897682;29;20262;-75
2023/10/21 11:36:37;;;;;;;1.80;0.50;;;15.70;99.90;;;;;;4897149;29;20214;-76
2023/10/21 11:39:12;;;;;;;7.50;0.83;;;15.70;99.90;;;;;;4897609;29;20330;-76
2023/10/21 11:41:46;;;;;;;4.37;0.40;;;15.60;99.90;;;;;;4893379;29;20234;-78
2023/10/21 11:44:15;;;;;;;3.63;0.80;;;15.50;99.90;;;;;;4881544;29;20222;-76
2023/10/21 11:46:42;;;;;;;4.10;0.77;;;15.50;99.90;;;;;;4899966;29;20632;-77
2023/10/21 11:49:15;;;;;;;3.13;0.73;;;15.60;99.90;;;;;;4915811;29;20300;-77
2023/10/21 11:51:42;;;;;;;3.93;0.53;;;15.60;99.90;;;;;;4903864;29;20245;-77
2023/10/21 11:54:19;;;;;;;2.07;0.60;;;15.70;99.90;;;;;;4897245;29;20259;-77
2023/10/21 12:08:54;;;;;;;1.60;0.40;;;15.60;99.90;;;;;;4865476;29;20207;-75
2023/10/21 12:11:42;;;;;;;4.73;0.93;;;15.60;99.90;;;;;;4894962;29;20706;-73
2023/10/21 12:17:41;;;;;;;1.63;0.40;;;15.70;99.90;;;;;;4890603;29;20211;-76
2023/10/21 12:20:29;;;;;;;3.13;0.60;;;15.60;99.90;;;;;;4898243;29;20222;-75
2023/10/21 12:36:42;;;;;;;1.23;0.50;;;15.90;99.90;;;;;;4896332;29;20202;-77
2023/10/21 12:39:28;;;;;;;4.97;0.70;;;15.90;99.90;;;;;;4897235;29;20650;-87
2023/10/21 12:41:57;;;;;;;1.47;0.63;;;15.90;99.90;;;;;;4898309;29;20297;-76
2023/10/21 12:44:23;;;;;;;6.23;0.60;;;15.80;99.90;;;;;;4924371;23;20241;-73
2023/10/21 12:46:57;;;;;;;2.57;0.70;;;15.90;99.90;;;;;;4917095;29;20198;-73
2023/10/21 12:49:27;;;;;;;2.60;0.40;;;15.90;99.90;;;;;;4916956;29;20217;-73
2023/10/21 12:51:55;;;;;;;5.80;0.70;;;15.80;99.90;;;;;;4917253;29;20218;-75
2023/10/21 12:54:22;;;;;;;2.23;0.70;;;15.60;99.90;;;;;;4916686;29;20661;-74
2023/10/21 12:56:50;;;;;;;2.13;0.60;;;15.60;99.90;;;;;;4916019;29;20217;-73
2023/10/21 12:59:19;;;;;;;4.93;1.00;;;15.50;99.90;;;;;;4916432;29;20273;-73
2023/10/21 13:01:46;;;;;;;5.07;0.60;;;15.20;99.90;;;;;;4916550;29;20217;-73
2023/10/21 13:04:13;;;;;;;3.63;0.67;;;15.20;99.90;;;;;;4916289;29;20829;-75
2023/10/21 13:06:42;;;;;;;4.13;0.57;;;15.20;99.90;;;;;;4916565;29;20490;-75
2023/10/21 13:09:23;;;;;;;5.57;0.83;;;15.20;99.90;;;;;;4917893;29;20220;-73
2023/10/21 13:11:50;;;;;;;4.43;0.67;;;15.10;99.90;;;;;;4917722;29;20568;-74
2023/10/21 13:14:18;;;;;;;6.33;0.77;;;15.10;99.90;;;;;;4917860;29;20245;-72
2023/10/21 13:16:45;;;;;;;6.10;0.80;;;15.10;99.90;;;;;;4918575;29;20312;-75
2023/10/21 13:19:12;;;;;;;6.50;0.77;;;15.00;99.90;;;;;;4917688;29;20245;-72
2023/10/21 13:21:41;;;;;;;6.17;1.70;;;15.10;99.90;;;;;;4916743;29;20708;-72
2023/10/21 13:24:09;;;;;;;4.60;1.60;;;15.20;99.90;;;;;;4917863;29;20220;-72
2023/10/21 13:26:37;;;;;;;3.17;1.00;;;15.20;99.90;;;;;;4918055;29;20213;-72
2023/10/21 13:29:04;;;;;;;1.73;0.60;;;15.30;99.90;;;;;;4917711;29;20296;-72
2023/10/21 13:31:33;;;;;;;3.43;1.40;;;15.30;99.90;;;;;;4917277;29;20233;-74
2023/10/21 13:34:02;;;;;;;7.67;0.80;;;15.40;99.90;;;;;;4917774;29;20205;-74
2023/10/21 13:36:30;;;;;;;3.43;0.40;;;15.50;99.90;;;;;;4918249;29;20305;-74
2023/10/21 13:39:00;;;;;;;5.30;0.73;;;15.30;99.90;;;;;;4917094;29;20276;-74
2023/10/21 13:41:27;;;;;;;4.23;0.70;;;15.30;99.90;;;;;;4917215;29;20253;-74
2023/10/21 13:43:54;;;;;;;1.57;0.40;;;15.30;99.90;;;;;;4917313;29;20250;-74
2023/10/21 13:46:20;;;;;;;4.03;0.50;;;15.10;99.90;;;;;;4917370;29;20216;-74
2023/10/21 13:48:51;;;;;;;2.60;0.57;;;14.90;99.90;;;;;;4917634;29;20248;-73
2023/10/21 13:51:18;;;;;;;3.30;0.70;;;14.80;99.90;;;;;;4917402;29;20229;-74
2023/10/21 13:53:45;;;;;;;2.43;0.43;;;14.70;99.90;;;;;;4917467;29;20244;-74
2023/10/21 13:56:13;;;;;;;2.03;0.40;;;14.60;99.90;;;;;;4917176;29;20245;-74
2023/10/21 13:58:41;;;;;;;1.93;0.53;;;14.60;99.90;;;;;;4915874;29;20269;-73
2023/10/21 14:01:12;;;;;;;3.00;0.60;;;14.40;99.90;;;;;;4916778;29;20692;-74
2023/10/21 14:03:40;;;;;;;3.00;0.47;;;14.30;99.90;;;;;;4916966;29;20208;-74
2023/10/21 14:06:07;;;;;;;0.70;0.30;;;14.20;99.90;;;;;;4916858;29;20206;-74
2023/10/21 14:08:34;;;;;;;2.70;0.77;;;14.10;99.90;;;;;;4916691;29;20296;-75
2023/10/21 14:11:06;;;;;;;2.00;0.40;;;14.00;99.90;;;;;;4914125;29;20580;-75
2023/10/21 14:13:34;;;;;;;1.77;0.40;;;13.90;99.90;;;;;;4916801;29;20210;-74
